sensor_id;sensor_type;location;lat;lon;timestamp;P1;durP1;ratioP1;P2;durP2;ratioP2
209;SDS011;90;48.810;9.120;2023-02-15T00:02:04;57.17;;;25.77;;
209;SDS011;90;48.810;9.120;2023-02-15T00:04:32;68.30;;;29.35;;
209;SDS011;90;48.810;9.120;2023-02-15T00:07:16;60.00;;;27.02;;
209;SDS011;90;48.810;9.120;2023-02-15T00:09:50;61.15;;;26.80;;
209;SDS011;90;48.810;9.120;2023-02-15T00:12:18;63.90;;;27.65;;
209;SDS011;90;48.810;9.120;2023-02-15T00:14:47;61.75;;;28.05;;
209;SDS011;90;48.810;9.120;2023-02-15T00:17:14;65.05;;;26.55;;
209;SDS011;90;48.810;9.120;2023-02-15T00:19:42;59.88;;;27.20;;
209;SDS011;90;48.810;9.120;2023-02-15T00:22:09;62.92;;;27.55;;
209;SDS011;90;48.810;9.120;2023-02-15T00:24:37;65.60;;;26.60;;
209;SDS011;90;48.810;9.120;2023-02-15T00:27:06;69.90;;;28.67;;
209;SDS011;90;48.810;9.120;2023-02-15T00:29:36;68.45;;;28.27;;
209;SDS011;90;48.810;9.120;2023-02-15T00:32:05;58.45;;;25.20;;
209;SDS011;90;48.810;9.120;2023-02-15T00:34:35;53.53;;;25.10;;
209;SDS011;90;48.810;9.120;2023-02-15T00:37:02;55.60;;;25.80;;
209;SDS011;90;48.810;9.120;2023-02-15T00:39:34;58.03;;;25.27;;
209;SDS011;90;48.810;9.120;2023-02-15T00:42:02;55.97;;;26.48;;
209;SDS011;90;48.810;9.120;2023-02-15T00:44:31;64.45;;;27.35;;
209;SDS011;90;48.810;9.120;2023-02-15T00:46:58;56.92;;;25.52;;
209;SDS011;90;48.810;9.120;2023-02-15T00:49:30;59.30;;;26.80;;
209;SDS011;90;48.810;9.120;2023-02-15T00:51:57;53.97;;;24.20;;
209;SDS011;90;48.810;9.120;2023-02-15T00:54:24;60.58;;;27.23;;
209;SDS011;90;48.810;9.120;2023-02-15T00:56:51;60.80;;;26.02;;
209;SDS011;90;48.810;9.120;2023-02-15T00:59:19;61.63;;;27.38;;
209;SDS011;90;48.810;9.120;2023-02-15T01:01:46;61.50;;;26.58;;
209;SDS011;90;48.810;9.120;2023-02-15T01:04:13;56.45;;;25.38;;
209;SDS011;90;48.810;9.120;2023-02-15T01:06:42;55.40;;;25.27;;
209;SDS011;90;48.810;9.120;2023-02-15T01:09:10;56.33;;;25.92;;
209;SDS011;90;48.810;9.120;2023-02-15T01:11:38;61.38;;;26.35;;
209;SDS011;90;48.810;9.120;2023-02-15T01:14:06;57.50;;;27.25;;
209;SDS011;90;48.810;9.120;2023-02-15T01:16:35;54.83;;;25.75;;
209;SDS011;90;48.810;9.120;2023-02-15T01:19:02;57.70;;;26.27;;
209;SDS011;90;48.810;9.120;2023-02-15T01:21:31;63.90;;;27.85;;
209;SDS011;90;48.810;9.120;2023-02-15T01:24:01;57.47;;;26.10;;
209;SDS011;90;48.810;9.120;2023-02-15T01:26:28;61.45;;;25.88;;
209;SDS011;90;48.810;9.120;2023-02-15T01:29:01;56.72;;;25.65;;
209;SDS011;90;48.810;9.120;2023-02-15T01:31:29;56.08;;;26.00;;
209;SDS011;90;48.810;9.120;2023-02-15T01:33:58;60.40;;;25.95;;
209;SDS011;90;48.810;9.120;2023-02-15T01:36:25;55.22;;;24.65;;
209;SDS011;90;48.810;9.120;2023-02-15T01:38:53;59.95;;;25.63;;
209;SDS011;90;48.810;9.120;2023-02-15T01:41:24;51.85;;;22.95;;
209;SDS011;90;48.810;9.120;2023-02-15T01:43:53;58.15;;;25.45;;
209;SDS011;90;48.810;9.120;2023-02-15T01:46:26;51.78;;;25.95;;
209;SDS011;90;48.810;9.120;2023-02-15T01:48:59;53.08;;;24.15;;
209;SDS011;90;48.810;9.120;2023-02-15T01:51:30;46.97;;;23.20;;
209;SDS011;90;48.810;9.120;2023-02-15T01:54:02;56.58;;;25.45;;
209;SDS011;90;48.810;9.120;2023-02-15T01:56:37;53.38;;;24.80;;
209;SDS011;90;48.810;9.120;2023-02-15T01:59:08;53.72;;;25.40;;
209;SDS011;90;48.810;9.120;2023-02-15T02:01:41;60.63;;;24.95;;
209;SDS011;90;48.810;9.120;2023-02-15T02:04:09;57.78;;;26.80;;
209;SDS011;90;48.810;9.120;2023-02-15T02:06:42;57.67;;;25.55;;
209;SDS011;90;48.810;9.120;2023-02-15T02:09:13;55.55;;;24.50;;
209;SDS011;90;48.810;9.120;2023-02-15T02:11:42;55.10;;;25.08;;
209;SDS011;90;48.810;9.120;2023-02-15T02:14:12;55.60;;;25.50;;
209;SDS011;90;48.810;9.120;2023-02-15T02:16:42;51.63;;;24.52;;
209;SDS011;90;48.810;9.120;2023-02-15T02:19:24;51.83;;;24.80;;
209;SDS011;90;48.810;9.120;2023-02-15T02:22:13;55.50;;;25.92;;
209;SDS011;90;48.810;9.120;2023-02-15T02:28:18;58.60;;;24.63;;
209;SDS011;90;48.810;9.120;2023-02-15T02:31:10;61.88;;;25.27;;
209;SDS011;90;48.810;9.120;2023-02-15T02:34:01;60.45;;;25.75;;
209;SDS011;90;48.810;9.120;2023-02-15T02:36:33;57.63;;;25.20;;
209;SDS011;90;48.810;9.120;2023-02-15T02:39:07;62.55;;;26.30;;
209;SDS011;90;48.810;9.120;2023-02-15T02:41:47;70.95;;;28.42;;
209;SDS011;90;48.810;9.120;2023-02-15T02:44:21;72.97;;;29.92;;
209;SDS011;90;48.810;9.120;2023-02-15T02:46:51;70.65;;;30.13;;
209;SDS011;90;48.810;9.120;2023-02-15T02:49:34;67.80;;;29.55;;
209;SDS011;90;48.810;9.120;2023-02-15T02:52:04;91.47;;;31.83;;
209;SDS011;90;48.810;9.120;2023-02-15T02:54:33;79.70;;;31.90;;
209;SDS011;90;48.810;9.120;2023-02-15T02:57:03;76.30;;;31.20;;
209;SDS011;90;48.810;9.120;2023-02-15T02:59:35;83.25;;;32.17;;
209;SDS011;90;48.810;9.120;2023-02-15T03:02:07;77.75;;;31.00;;
209;SDS011;90;48.810;9.120;2023-02-15T03:04:41;107.47;;;33.30;;
209;SDS011;90;48.810;9.120;2023-02-15T03:07:13;126.78;;;33.85;;
209;SDS011;90;48.810;9.120;2023-02-15T03:09:48;125.30;;;34.75;;
209;SDS011;90;48.810;9.120;2023-02-15T03:12:24;91.78;;;33.50;;
209;SDS011;90;48.810;9.120;2023-02-15T03:15:05;121.63;;;36.20;;
209;SDS011;90;48.810;9.120;2023-02-15T03:17:36;127.38;;;34.30;;
209;SDS011;90;48.810;9.120;2023-02-15T03:20:11;168.55;;;33.95;;
209;SDS011;90;48.810;9.120;2023-02-15T03:22:45;121.43;;;34.88;;
209;SDS011;90;48.810;9.120;2023-02-15T03:25:21;131.85;;;35.22;;
209;SDS011;90;48.810;9.120;2023-02-15T03:27:52;208.63;;;36.22;;
209;SDS011;90;48.810;9.120;2023-02-15T03:30:21;104.30;;;34.22;;
209;SDS011;90;48.810;9.120;2023-02-15T03:32:50;136.13;;;35.00;;
209;SDS011;90;48.810;9.120;2023-02-15T03:35:19;221.07;;;36.55;;
209;SDS011;90;48.810;9.120;2023-02-15T03:37:51;219.40;;;39.53;;
209;SDS011;90;48.810;9.120;2023-02-15T03:40:24;203.23;;;36.40;;
209;SDS011;90;48.810;9.120;2023-02-15T03:43:14;141.48;;;35.97;;
209;SDS011;90;48.810;9.120;2023-02-15T03:45:45;91.60;;;32.88;;
209;SDS011;90;48.810;9.120;2023-02-15T03:48:21;157.07;;;33.45;;
209;SDS011;90;48.810;9.120;2023-02-15T03:50:53;124.90;;;35.25;;
209;SDS011;90;48.810;9.120;2023-02-15T03:53:41;166.05;;;35.92;;
209;SDS011;90;48.810;9.120;2023-02-15T03:56:10;106.53;;;33.28;;
209;SDS011;90;48.810;9.120;2023-02-15T03:58:37;175.85;;;36.08;;
209;SDS011;90;48.810;9.120;2023-02-15T04:01:23;101.53;;;33.45;;
209;SDS011;90;48.810;9.120;2023-02-15T04:04:11;99.22;;;33.15;;
209;SDS011;90;48.810;9.120;2023-02-15T04:06:45;89.65;;;32.10;;
209;SDS011;90;48.810;9.120;2023-02-15T04:09:12;81.57;;;33.13;;
209;SDS011;90;48.810;9.120;2023-02-15T04:11:56;107.93;;;32.75;;
209;SDS011;90;48.810;9.120;2023-02-15T04:14:24;88.75;;;33.05;;
209;SDS011;90;48.810;9.120;2023-02-15T04:17:09;85.07;;;31.70;;
209;SDS011;90;48.810;9.120;2023-02-15T04:19:36;75.13;;;30.63;;
209;SDS011;90;48.810;9.120;2023-02-15T04:22:22;182.48;;;33.38;;
209;SDS011;90;48.810;9.120;2023-02-15T04:25:07;215.27;;;34.40;;
209;SDS011;90;48.810;9.120;2023-02-15T04:27:38;81.68;;;31.65;;
209;SDS011;90;48.810;9.120;2023-02-15T04:30:07;67.70;;;30.13;;
209;SDS011;90;48.810;9.120;2023-02-15T04:32:35;93.28;;;30.73;;
209;SDS011;90;48.810;9.120;2023-02-15T04:35:04;90.55;;;31.10;;
209;SDS011;90;48.810;9.120;2023-02-15T04:37:33;107.07;;;31.52;;
209;SDS011;90;48.810;9.120;2023-02-15T04:40:01;73.05;;;29.40;;
209;SDS011;90;48.810;9.120;2023-02-15T04:42:29;64.22;;;30.02;;
209;SDS011;90;48.810;9.120;2023-02-15T04:44:57;79.93;;;30.15;;
209;SDS011;90;48.810;9.120;2023-02-15T04:47:24;81.15;;;30.38;;
209;SDS011;90;48.810;9.120;2023-02-15T04:49:52;78.68;;;31.08;;
209;SDS011;90;48.810;9.120;2023-02-15T04:52:19;79.30;;;29.70;;
209;SDS011;90;48.810;9.120;2023-02-15T04:54:48;71.60;;;28.77;;
209;SDS011;90;48.810;9.120;2023-02-15T04:57:16;74.55;;;29.85;;
209;SDS011;90;48.810;9.120;2023-02-15T04:59:43;79.15;;;30.95;;
209;SDS011;90;48.810;9.120;2023-02-15T05:02:10;73.57;;;29.00;;
209;SDS011;90;48.810;9.120;2023-02-15T05:04:37;69.30;;;27.60;;
209;SDS011;90;48.810;9.120;2023-02-15T05:07:05;78.72;;;30.40;;
209;SDS011;90;48.810;9.120;2023-02-15T05:09:32;89.10;;;32.40;;
209;SDS011;90;48.810;9.120;2023-02-15T05:12:01;106.07;;;31.48;;
209;SDS011;90;48.810;9.120;2023-02-15T05:14:28;70.15;;;29.70;;
209;SDS011;90;48.810;9.120;2023-02-15T05:16:56;64.88;;;29.42;;
209;SDS011;90;48.810;9.120;2023-02-15T05:19:26;71.45;;;30.15;;
209;SDS011;90;48.810;9.120;2023-02-15T05:21:53;64.25;;;27.60;;
209;SDS011;90;48.810;9.120;2023-02-15T05:24:21;67.22;;;28.70;;
209;SDS011;90;48.810;9.120;2023-02-15T05:27:08;68.18;;;29.48;;
209;SDS011;90;48.810;9.120;2023-02-15T05:29:54;67.35;;;28.38;;
209;SDS011;90;48.810;9.120;2023-02-15T05:32:21;65.10;;;29.13;;
209;SDS011;90;48.810;9.120;2023-02-15T05:34:49;110.07;;;29.50;;
209;SDS011;90;48.810;9.120;2023-02-15T05:37:16;104.88;;;29.55;;
209;SDS011;90;48.810;9.120;2023-02-15T05:39:43;105.78;;;28.73;;
209;SDS011;90;48.810;9.120;2023-02-15T05:42:11;126.72;;;28.85;;
209;SDS011;90;48.810;9.120;2023-02-15T05:44:39;62.97;;;28.47;;
209;SDS011;90;48.810;9.120;2023-02-15T05:47:06;91.07;;;30.58;;
209;SDS011;90;48.810;9.120;2023-02-15T05:49:34;81.22;;;30.55;;
209;SDS011;90;48.810;9.120;2023-02-15T05:52:01;60.35;;;28.88;;
209;SDS011;90;48.810;9.120;2023-02-15T05:54:29;90.88;;;29.40;;
209;SDS011;90;48.810;9.120;2023-02-15T05:56:56;70.47;;;29.33;;
209;SDS011;90;48.810;9.120;2023-02-15T05:59:26;91.43;;;30.90;;
209;SDS011;90;48.810;9.120;2023-02-15T06:01:53;62.17;;;27.80;;
209;SDS011;90;48.810;9.120;2023-02-15T06:04:20;72.90;;;27.58;;
209;SDS011;90;48.810;9.120;2023-02-15T06:06:47;73.00;;;28.08;;
209;SDS011;90;48.810;9.120;2023-02-15T06:09:14;81.25;;;28.25;;
209;SDS011;90;48.810;9.120;2023-02-15T06:11:43;79.82;;;30.75;;
209;SDS011;90;48.810;9.120;2023-02-15T06:14:10;68.78;;;27.23;;
209;SDS011;90;48.810;9.120;2023-02-15T06:16:38;103.30;;;30.75;;
209;SDS011;90;48.810;9.120;2023-02-15T06:19:05;74.95;;;28.98;;
209;SDS011;90;48.810;9.120;2023-02-15T06:21:32;64.45;;;27.83;;
209;SDS011;90;48.810;9.120;2023-02-15T06:24:00;79.53;;;29.00;;
209;SDS011;90;48.810;9.120;2023-02-15T06:26:26;93.32;;;29.23;;
209;SDS011;90;48.810;9.120;2023-02-15T06:28:53;62.75;;;27.38;;
209;SDS011;90;48.810;9.120;2023-02-15T06:31:20;80.57;;;29.58;;
209;SDS011;90;48.810;9.120;2023-02-15T06:33:49;75.43;;;29.05;;
209;SDS011;90;48.810;9.120;2023-02-15T06:36:16;80.78;;;30.02;;
209;SDS011;90;48.810;9.120;2023-02-15T06:38:43;67.95;;;28.27;;
209;SDS011;90;48.810;9.120;2023-02-15T06:41:09;57.03;;;26.70;;
209;SDS011;90;48.810;9.120;2023-02-15T06:43:37;57.85;;;27.85;;
209;SDS011;90;48.810;9.120;2023-02-15T06:46:04;60.97;;;29.13;;
209;SDS011;90;48.810;9.120;2023-02-15T06:48:31;68.20;;;28.48;;
209;SDS011;90;48.810;9.120;2023-02-15T06:50:59;74.10;;;29.58;;
209;SDS011;90;48.810;9.120;2023-02-15T06:53:26;63.92;;;27.83;;
209;SDS011;90;48.810;9.120;2023-02-15T06:55:59;59.80;;;27.50;;
209;SDS011;90;48.810;9.120;2023-02-15T06:58:27;62.67;;;28.88;;
209;SDS011;90;48.810;9.120;2023-02-15T07:00:54;64.18;;;28.02;;
209;SDS011;90;48.810;9.120;2023-02-15T07:03:21;69.65;;;29.13;;
209;SDS011;90;48.810;9.120;2023-02-15T07:05:48;67.80;;;25.88;;
209;SDS011;90;48.810;9.120;2023-02-15T07:08:22;62.88;;;28.30;;
209;SDS011;90;48.810;9.120;2023-02-15T07:10:49;61.28;;;28.10;;
209;SDS011;90;48.810;9.120;2023-02-15T07:13:16;102.95;;;30.60;;
209;SDS011;90;48.810;9.120;2023-02-15T07:15:43;55.50;;;25.25;;
209;SDS011;90;48.810;9.120;2023-02-15T07:18:10;68.07;;;28.60;;
209;SDS011;90;48.810;9.120;2023-02-15T07:20:37;46.92;;;24.70;;
209;SDS011;90;48.810;9.120;2023-02-15T07:23:07;52.85;;;25.85;;
209;SDS011;90;48.810;9.120;2023-02-15T07:25:35;46.53;;;23.15;;
209;SDS011;90;48.810;9.120;2023-02-15T07:28:03;49.40;;;25.23;;
209;SDS011;90;48.810;9.120;2023-02-15T07:30:31;51.25;;;24.35;;
209;SDS011;90;48.810;9.120;2023-02-15T07:32:58;55.35;;;26.35;;
209;SDS011;90;48.810;9.120;2023-02-15T07:35:46;52.40;;;24.25;;
209;SDS011;90;48.810;9.120;2023-02-15T07:38:14;54.55;;;26.35;;
209;SDS011;90;48.810;9.120;2023-02-15T07:40:42;53.95;;;27.83;;
209;SDS011;90;48.810;9.120;2023-02-15T07:43:09;54.63;;;26.30;;
209;SDS011;90;48.810;9.120;2023-02-15T07:45:37;56.05;;;25.98;;
209;SDS011;90;48.810;9.120;2023-02-15T07:48:04;58.67;;;26.20;;
209;SDS011;90;48.810;9.120;2023-02-15T07:50:32;57.60;;;25.30;;
209;SDS011;90;48.810;9.120;2023-02-15T07:53:00;56.63;;;25.02;;
209;SDS011;90;48.810;9.120;2023-02-15T07:55:28;65.97;;;26.50;;
209;SDS011;90;48.810;9.120;2023-02-15T07:57:56;60.30;;;27.75;;
209;SDS011;90;48.810;9.120;2023-02-15T08:00:25;73.35;;;27.67;;
209;SDS011;90;48.810;9.120;2023-02-15T08:02:52;63.22;;;28.15;;
209;SDS011;90;48.810;9.120;2023-02-15T08:05:38;61.28;;;27.95;;
209;SDS011;90;48.810;9.120;2023-02-15T08:08:05;68.03;;;28.13;;
209;SDS011;90;48.810;9.120;2023-02-15T08:10:32;65.43;;;28.55;;
209;SDS011;90;48.810;9.120;2023-02-15T08:13:19;61.75;;;26.45;;
209;SDS011;90;48.810;9.120;2023-02-15T08:15:47;70.28;;;29.20;;
209;SDS011;90;48.810;9.120;2023-02-15T08:18:15;87.43;;;28.48;;
209;SDS011;90;48.810;9.120;2023-02-15T08:20:42;62.60;;;29.13;;
209;SDS011;90;48.810;9.120;2023-02-15T08:23:15;93.90;;;30.33;;
209;SDS011;90;48.810;9.120;2023-02-15T08:25:42;83.72;;;28.65;;
209;SDS011;90;48.810;9.120;2023-02-15T08:28:11;104.05;;;27.90;;
209;SDS011;90;48.810;9.120;2023-02-15T08:30:39;67.35;;;28.48;;
209;SDS011;90;48.810;9.120;2023-02-15T08:33:07;79.75;;;28.48;;
209;SDS011;90;48.810;9.120;2023-02-15T08:35:36;97.05;;;28.02;;
209;SDS011;90;48.810;9.120;2023-02-15T08:38:05;52.85;;;26.40;;
209;SDS011;90;48.810;9.120;2023-02-15T08:40:35;52.15;;;25.73;;
209;SDS011;90;48.810;9.120;2023-02-15T08:43:03;59.70;;;28.23;;
209;SDS011;90;48.810;9.120;2023-02-15T08:45:32;62.05;;;27.25;;
209;SDS011;90;48.810;9.120;2023-02-15T08:48:00;54.63;;;26.23;;
209;SDS011;90;48.810;9.120;2023-02-15T08:50:27;57.70;;;26.30;;
209;SDS011;90;48.810;9.120;2023-02-15T08:52:55;65.55;;;29.58;;
209;SDS011;90;48.810;9.120;2023-02-15T08:55:27;57.17;;;26.98;;
209;SDS011;90;48.810;9.120;2023-02-15T08:57:54;60.65;;;26.98;;
209;SDS011;90;48.810;9.120;2023-02-15T09:03:05;62.50;;;28.73;;
209;SDS011;90;48.810;9.120;2023-02-15T09:05:32;58.65;;;28.05;;
209;SDS011;90;48.810;9.120;2023-02-15T09:08:00;67.75;;;29.08;;
209;SDS011;90;48.810;9.120;2023-02-15T09:10:27;72.47;;;28.30;;
209;SDS011;90;48.810;9.120;2023-02-15T09:12:54;63.15;;;29.92;;
209;SDS011;90;48.810;9.120;2023-02-15T09:15:21;67.25;;;29.73;;
209;SDS011;90;48.810;9.120;2023-02-15T09:17:49;61.30;;;28.85;;
209;SDS011;90;48.810;9.120;2023-02-15T09:20:18;63.60;;;29.42;;
209;SDS011;90;48.810;9.120;2023-02-15T09:22:45;64.63;;;27.77;;
209;SDS011;90;48.810;9.120;2023-02-15T09:25:12;61.00;;;27.50;;
209;SDS011;90;48.810;9.120;2023-02-15T09:27:40;51.38;;;27.25;;
209;SDS011;90;48.810;9.120;2023-02-15T09:30:11;67.63;;;29.05;;
209;SDS011;90;48.810;9.120;2023-02-15T09:32:40;57.40;;;27.00;;
209;SDS011;90;48.810;9.120;2023-02-15T09:35:11;63.72;;;29.35;;
209;SDS011;90;48.810;9.120;2023-02-15T09:37:40;58.97;;;27.33;;
209;SDS011;90;48.810;9.120;2023-02-15T09:40:09;62.80;;;28.48;;
209;SDS011;90;48.810;9.120;2023-02-15T09:45:45;65.05;;;29.70;;
209;SDS011;90;48.810;9.120;2023-02-15T09:48:34;63.80;;;29.38;;
209;SDS011;90;48.810;9.120;2023-02-15T09:51:09;57.35;;;29.30;;
209;SDS011;90;48.810;9.120;2023-02-15T09:54:02;68.93;;;29.58;;
209;SDS011;90;48.810;9.120;2023-02-15T09:56:38;64.68;;;29.73;;
209;SDS011;90;48.810;9.120;2023-02-15T09:59:10;68.13;;;30.45;;
209;SDS011;90;48.810;9.120;2023-02-15T10:01:45;69.13;;;30.98;;
209;SDS011;90;48.810;9.120;2023-02-15T10:04:25;71.05;;;31.02;;
209;SDS011;90;48.810;9.120;2023-02-15T10:07:07;70.63;;;31.42;;
209;SDS011;90;48.810;9.120;2023-02-15T10:09:53;67.80;;;30.63;;
209;SDS011;90;48.810;9.120;2023-02-15T10:12:32;63.83;;;29.48;;
209;SDS011;90;48.810;9.120;2023-02-15T10:15:13;63.47;;;30.65;;
209;SDS011;90;48.810;9.120;2023-02-15T10:20:53;71.97;;;32.80;;
209;SDS011;90;48.810;9.120;2023-02-15T10:23:35;75.35;;;34.20;;
209;SDS011;90;48.810;9.120;2023-02-15T10:26:18;66.15;;;32.17;;
209;SDS011;90;48.810;9.120;2023-02-15T10:28:48;69.95;;;32.95;;
209;SDS011;90;48.810;9.120;2023-02-15T10:31:26;66.93;;;30.35;;
209;SDS011;90;48.810;9.120;2023-02-15T10:34:02;85.32;;;33.80;;
209;SDS011;90;48.810;9.120;2023-02-15T10:36:43;69.05;;;32.45;;
209;SDS011;90;48.810;9.120;2023-02-15T10:39:24;70.18;;;32.47;;
209;SDS011;90;48.810;9.120;2023-02-15T10:42:01;76.57;;;32.15;;
209;SDS011;90;48.810;9.120;2023-02-15T10:44:37;83.05;;;36.17;;
209;SDS011;90;48.810;9.120;2023-02-15T10:50:17;67.25;;;32.08;;
209;SDS011;90;48.810;9.120;2023-02-15T10:53:04;76.80;;;33.28;;
209;SDS011;90;48.810;9.120;2023-02-15T10:55:42;85.68;;;34.33;;
209;SDS011;90;48.810;9.120;2023-02-15T10:58:20;70.57;;;32.45;;
209;SDS011;90;48.810;9.120;2023-02-15T11:00:59;73.40;;;33.30;;
209;SDS011;90;48.810;9.120;2023-02-15T11:03:36;68.95;;;33.15;;
209;SDS011;90;48.810;9.120;2023-02-15T11:06:18;79.97;;;33.85;;
209;SDS011;90;48.810;9.120;2023-02-15T11:08:48;88.78;;;32.90;;
209;SDS011;90;48.810;9.120;2023-02-15T11:11:21;78.13;;;34.70;;
209;SDS011;90;48.810;9.120;2023-02-15T11:13:54;81.07;;;34.67;;
209;SDS011;90;48.810;9.120;2023-02-15T11:16:25;73.20;;;34.90;;
209;SDS011;90;48.810;9.120;2023-02-15T11:18:57;80.35;;;36.85;;
209;SDS011;90;48.810;9.120;2023-02-15T11:21:31;81.85;;;34.75;;
209;SDS011;90;48.810;9.120;2023-02-15T11:24:07;84.05;;;34.38;;
209;SDS011;90;48.810;9.120;2023-02-15T11:26:37;87.57;;;35.53;;
209;SDS011;90;48.810;9.120;2023-02-15T11:29:11;82.75;;;35.55;;
209;SDS011;90;48.810;9.120;2023-02-15T11:31:45;76.07;;;34.13;;
209;SDS011;90;48.810;9.120;2023-02-15T11:34:17;93.43;;;34.97;;
209;SDS011;90;48.810;9.120;2023-02-15T11:36:48;68.05;;;32.67;;
209;SDS011;90;48.810;9.120;2023-02-15T11:39:19;86.32;;;35.58;;
209;SDS011;90;48.810;9.120;2023-02-15T11:41:49;82.90;;;35.13;;
209;SDS011;90;48.810;9.120;2023-02-15T11:44:20;68.85;;;33.67;;
209;SDS011;90;48.810;9.120;2023-02-15T11:46:51;75.93;;;33.55;;
209;SDS011;90;48.810;9.120;2023-02-15T11:49:22;86.60;;;35.53;;
209;SDS011;90;48.810;9.120;2023-02-15T11:51:51;72.40;;;33.97;;
209;SDS011;90;48.810;9.120;2023-02-15T11:54:20;73.13;;;34.42;;
209;SDS011;90;48.810;9.120;2023-02-15T11:56:52;79.82;;;35.03;;
209;SDS011;90;48.810;9.120;2023-02-15T11:59:24;70.90;;;32.13;;
209;SDS011;90;48.810;9.120;2023-02-15T12:01:55;80.32;;;33.95;;
209;SDS011;90;48.810;9.120;2023-02-15T12:04:23;79.07;;;34.70;;
209;SDS011;90;48.810;9.120;2023-02-15T12:06:53;71.88;;;34.65;;
209;SDS011;90;48.810;9.120;2023-02-15T12:09:25;78.80;;;34.10;;
209;SDS011;90;48.810;9.120;2023-02-15T12:14:50;86.05;;;34.72;;
209;SDS011;90;48.810;9.120;2023-02-15T12:17:18;78.90;;;36.22;;
209;SDS011;90;48.810;9.120;2023-02-15T12:19:48;70.03;;;34.03;;
209;SDS011;90;48.810;9.120;2023-02-15T12:22:19;75.82;;;33.97;;
209;SDS011;90;48.810;9.120;2023-02-15T12:24:50;72.80;;;34.58;;
209;SDS011;90;48.810;9.120;2023-02-15T12:27:20;69.55;;;34.55;;
209;SDS011;90;48.810;9.120;2023-02-15T12:29:52;66.83;;;33.50;;
209;SDS011;90;48.810;9.120;2023-02-15T12:32:23;76.10;;;34.17;;
209;SDS011;90;48.810;9.120;2023-02-15T12:34:55;71.23;;;34.40;;
209;SDS011;90;48.810;9.120;2023-02-15T12:37:30;66.93;;;32.73;;
209;SDS011;90;48.810;9.120;2023-02-15T12:40:00;77.10;;;34.07;;
209;SDS011;90;48.810;9.120;2023-02-15T12:42:41;71.33;;;33.37;;
209;SDS011;90;48.810;9.120;2023-02-15T12:45:20;63.37;;;31.50;;
209;SDS011;90;48.810;9.120;2023-02-15T12:48:07;64.53;;;32.03;;
209;SDS011;90;48.810;9.120;2023-02-15T12:50:35;71.50;;;33.20;;
209;SDS011;90;48.810;9.120;2023-02-15T12:53:07;68.47;;;32.63;;
209;SDS011;90;48.810;9.120;2023-02-15T12:55:39;64.27;;;32.40;;
209;SDS011;90;48.810;9.120;2023-02-15T12:58:17;67.77;;;32.10;;
209;SDS011;90;48.810;9.120;2023-02-15T13:00:48;72.10;;;33.50;;
209;SDS011;90;48.810;9.120;2023-02-15T13:03:29;60.07;;;29.80;;
209;SDS011;90;48.810;9.120;2023-02-15T13:05:56;72.40;;;33.30;;
209;SDS011;90;48.810;9.120;2023-02-15T13:08:27;68.77;;;32.40;;
209;SDS011;90;48.810;9.120;2023-02-15T13:10:57;62.80;;;32.47;;
209;SDS011;90;48.810;9.120;2023-02-15T13:13:26;61.73;;;32.53;;
209;SDS011;90;48.810;9.120;2023-02-15T13:15:56;67.30;;;32.07;;
209;SDS011;90;48.810;9.120;2023-02-15T13:18:29;62.97;;;31.07;;
209;SDS011;90;48.810;9.120;2023-02-15T13:20:58;74.10;;;31.90;;
209;SDS011;90;48.810;9.120;2023-02-15T13:23:32;54.07;;;30.60;;
209;SDS011;90;48.810;9.120;2023-02-15T13:26:02;66.03;;;29.87;;
209;SDS011;90;48.810;9.120;2023-02-15T13:28:34;55.53;;;29.40;;
209;SDS011;90;48.810;9.120;2023-02-15T13:31:09;66.53;;;33.53;;
209;SDS011;90;48.810;9.120;2023-02-15T13:33:39;73.17;;;32.23;;
209;SDS011;90;48.810;9.120;2023-02-15T13:36:14;66.27;;;32.43;;
209;SDS011;90;48.810;9.120;2023-02-15T13:38:49;60.97;;;31.33;;
209;SDS011;90;48.810;9.120;2023-02-15T13:41:30;70.00;;;30.37;;
209;SDS011;90;48.810;9.120;2023-02-15T13:44:02;66.33;;;33.80;;
209;SDS011;90;48.810;9.120;2023-02-15T13:46:43;61.33;;;31.43;;
209;SDS011;90;48.810;9.120;2023-02-15T13:49:18;59.78;;;30.80;;
209;SDS011;90;48.810;9.120;2023-02-15T13:51:58;64.60;;;31.10;;
209;SDS011;90;48.810;9.120;2023-02-15T13:54:42;58.03;;;30.03;;
209;SDS011;90;48.810;9.120;2023-02-15T13:57:22;60.43;;;31.07;;
209;SDS011;90;48.810;9.120;2023-02-15T14:00:14;64.33;;;31.27;;
209;SDS011;90;48.810;9.120;2023-02-15T14:03:02;73.13;;;32.47;;
209;SDS011;90;48.810;9.120;2023-02-15T14:05:54;59.70;;;31.50;;
209;SDS011;90;48.810;9.120;2023-02-15T14:08:40;63.03;;;30.10;;
209;SDS011;90;48.810;9.120;2023-02-15T14:11:18;56.30;;;29.37;;
209;SDS011;90;48.810;9.120;2023-02-15T14:13:58;66.37;;;31.93;;
209;SDS011;90;48.810;9.120;2023-02-15T14:16:45;66.03;;;30.30;;
209;SDS011;90;48.810;9.120;2023-02-15T14:19:22;57.63;;;28.87;;
209;SDS011;90;48.810;9.120;2023-02-15T14:21:56;52.70;;;28.63;;
209;SDS011;90;48.810;9.120;2023-02-15T14:24:32;53.40;;;27.77;;
209;SDS011;90;48.810;9.120;2023-02-15T14:27:06;60.33;;;27.83;;
209;SDS011;90;48.810;9.120;2023-02-15T14:29:43;44.83;;;24.77;;
209;SDS011;90;48.810;9.120;2023-02-15T14:32:17;51.53;;;27.03;;
209;SDS011;90;48.810;9.120;2023-02-15T14:34:50;52.57;;;26.70;;
209;SDS011;90;48.810;9.120;2023-02-15T14:37:21;54.33;;;26.27;;
209;SDS011;90;48.810;9.120;2023-02-15T14:39:56;54.10;;;27.00;;
209;SDS011;90;48.810;9.120;2023-02-15T14:42:48;53.63;;;26.77;;
209;SDS011;90;48.810;9.120;2023-02-15T14:45:21;48.83;;;24.90;;
209;SDS011;90;48.810;9.120;2023-02-15T14:47:56;47.63;;;26.07;;
209;SDS011;90;48.810;9.120;2023-02-15T14:50:42;53.90;;;25.37;;
209;SDS011;90;48.810;9.120;2023-02-15T14:56:16;44.57;;;24.13;;
209;SDS011;90;48.810;9.120;2023-02-15T15:01:55;42.03;;;22.30;;
209;SDS011;90;48.810;9.120;2023-02-15T15:04:25;43.87;;;23.20;;
209;SDS011;90;48.810;9.120;2023-02-15T15:07:00;43.17;;;22.87;;
209;SDS011;90;48.810;9.120;2023-02-15T15:09:34;44.03;;;22.63;;
209;SDS011;90;48.810;9.120;2023-02-15T15:15:04;45.83;;;23.80;;
209;SDS011;90;48.810;9.120;2023-02-15T15:17:52;41.93;;;22.40;;
209;SDS011;90;48.810;9.120;2023-02-15T15:26:29;46.67;;;23.73;;
209;SDS011;90;48.810;9.120;2023-02-15T15:28:59;39.87;;;22.03;;
209;SDS011;90;48.810;9.120;2023-02-15T15:31:37;42.37;;;23.07;;
209;SDS011;90;48.810;9.120;2023-02-15T15:37:22;44.13;;;24.00;;
209;SDS011;90;48.810;9.120;2023-02-15T15:46:30;46.23;;;23.77;;
209;SDS011;90;48.810;9.120;2023-02-15T15:49:24;46.20;;;24.90;;
209;SDS011;90;48.810;9.120;2023-02-15T15:51:55;50.47;;;25.00;;
209;SDS011;90;48.810;9.120;2023-02-15T15:54:27;49.40;;;26.13;;
209;SDS011;90;48.810;9.120;2023-02-15T15:56:56;67.90;;;29.03;;
209;SDS011;90;48.810;9.120;2023-02-15T15:59:26;57.07;;;28.30;;
209;SDS011;90;48.810;9.120;2023-02-15T16:01:55;73.33;;;32.67;;
209;SDS011;90;48.810;9.120;2023-02-15T16:04:30;69.97;;;33.30;;
209;SDS011;90;48.810;9.120;2023-02-15T16:06:58;62.23;;;31.10;;
209;SDS011;90;48.810;9.120;2023-02-15T16:09:55;62.23;;;31.83;;
209;SDS011;90;48.810;9.120;2023-02-15T16:12:26;73.97;;;33.17;;
209;SDS011;90;48.810;9.120;2023-02-15T16:14:55;62.50;;;32.93;;
209;SDS011;90;48.810;9.120;2023-02-15T16:17:24;70.05;;;32.20;;
209;SDS011;90;48.810;9.120;2023-02-15T16:20:01;67.67;;;33.00;;
209;SDS011;90;48.810;9.120;2023-02-15T16:22:32;69.10;;;33.57;;
209;SDS011;90;48.810;9.120;2023-02-15T16:28:07;73.37;;;34.57;;
209;SDS011;90;48.810;9.120;2023-02-15T16:30:37;64.10;;;32.60;;
209;SDS011;90;48.810;9.120;2023-02-15T16:33:06;75.33;;;35.07;;
209;SDS011;90;48.810;9.120;2023-02-15T16:35:35;64.30;;;32.10;;
209;SDS011;90;48.810;9.120;2023-02-15T16:38:03;66.47;;;31.03;;
209;SDS011;90;48.810;9.120;2023-02-15T16:40:41;62.77;;;32.30;;
209;SDS011;90;48.810;9.120;2023-02-15T16:43:17;61.20;;;29.23;;
209;SDS011;90;48.810;9.120;2023-02-15T16:45:48;59.50;;;28.03;;
209;SDS011;90;48.810;9.120;2023-02-15T16:48:17;51.83;;;26.93;;